createdAt,value
2023-05-05T00:00:55.301Z,5.27
2023-05-05T00:03:41.636Z,5.24
2023-05-05T00:06:28.476Z,5.24
2023-05-05T00:09:14.378Z,5.23
2023-05-05T00:12:00.036Z,5.21
2023-05-05T00:14:45.382Z,5.16
2023-05-05T00:17:30.868Z,5.13
2023-05-05T00:20:16.207Z,5.15
2023-05-05T00:23:01.748Z,5.12
2023-05-05T00:25:47.055Z,5.09
2023-05-05T00:28:32.605Z,5.11
2023-05-05T00:31:18.244Z,5.13
2023-05-05T00:34:04.014Z,5.14
2023-05-05T00:36:49.633Z,5.13
2023-05-05T00:39:35.205Z,5.10
2023-05-05T00:42:20.529Z,5.07
2023-05-05T00:45:06.505Z,5.08
2023-05-05T00:47:55.858Z,5.08
2023-05-05T00:50:43.199Z,5.08
2023-05-05T00:53:28.916Z,5.08
2023-05-05T00:56:16.879Z,5.07
2023-05-05T00:59:03.879Z,5.06
2023-05-05T01:01:50.779Z,4.98
2023-05-05T01:04:36.219Z,4.96
2023-05-05T01:07:43.362Z,4.91
2023-05-05T01:10:31.739Z,4.88
2023-05-05T01:13:39.885Z,4.85
2023-05-05T01:16:28.802Z,4.86
2023-05-05T01:19:45.466Z,4.84
2023-05-05T01:22:39.492Z,4.83
2023-05-05T01:26:00.726Z,4.82
2023-05-05T01:29:08.092Z,4.79
2023-05-05T01:31:57.670Z,4.80
2023-05-05T01:34:53.990Z,4.73
2023-05-05T01:37:49.415Z,4.64
2023-05-05T01:40:42.425Z,4.59
2023-05-05T01:43:30.863Z,4.55
2023-05-05T01:46:19.333Z,4.52
2023-05-05T01:49:06.674Z,4.48
2023-05-05T01:51:53.458Z,4.41
2023-05-05T01:54:41.095Z,4.38
2023-05-05T01:57:29.499Z,4.37
2023-05-05T02:00:18.030Z,4.32
2023-05-05T02:03:05.105Z,4.33
2023-05-05T02:05:52.506Z,4.32
2023-05-05T02:08:39.577Z,4.31
2023-05-05T02:11:28.115Z,4.29
2023-05-05T02:14:17.033Z,4.25
2023-05-05T02:17:04.157Z,4.22
2023-05-05T02:19:52.415Z,4.22
2023-05-05T02:22:38.186Z,4.13
2023-05-05T02:25:32.361Z,4.03
2023-05-05T02:28:49.407Z,3.98
2023-05-05T02:31:44.085Z,3.96
2023-05-05T02:34:36.774Z,3.93
2023-05-05T02:37:29.810Z,3.87
2023-05-05T02:40:22.766Z,3.82
2023-05-05T02:43:11.833Z,3.78
2023-05-05T02:46:21.929Z,3.77
2023-05-05T02:49:07.739Z,3.71
2023-05-05T02:51:54.846Z,3.63
2023-05-05T02:54:44.686Z,3.57
2023-05-05T02:57:45.100Z,3.54
2023-05-05T03:01:07.360Z,3.56
2023-05-05T03:04:04.541Z,3.56
2023-05-05T03:06:58.578Z,3.48
2023-05-05T03:10:03.249Z,3.39
2023-05-05T03:12:55.192Z,3.36
2023-05-05T03:15:49.674Z,3.36
2023-05-05T03:18:38.923Z,3.36
2023-05-05T03:21:24.835Z,3.34
2023-05-05T03:24:20.712Z,3.33
2023-05-05T03:27:14.345Z,3.31
2023-05-05T03:30:00.547Z,3.27
2023-05-05T03:32:46.532Z,3.26
2023-05-05T03:35:32.521Z,3.27
2023-05-05T03:38:18.072Z,3.26
2023-05-05T03:41:04.439Z,3.26
2023-05-05T03:43:51.447Z,3.25
2023-05-05T03:46:37.521Z,3.25
2023-05-05T03:49:25.578Z,3.26
2023-05-05T03:52:13.250Z,3.23
2023-05-05T03:55:00.346Z,3.22
2023-05-05T03:57:46.211Z,3.23
2023-05-05T04:00:32.134Z,3.17
2023-05-05T04:03:18.249Z,3.14
2023-05-05T04:06:04.256Z,3.12
2023-05-05T04:08:50.807Z,3.11
2023-05-05T04:11:36.361Z,3.14
2023-05-05T04:14:22.346Z,3.14
2023-05-05T04:17:08.000Z,3.10
2023-05-05T04:19:54.318Z,3.07
2023-05-05T04:22:39.715Z,3.06
2023-05-05T04:25:25.236Z,3.10
2023-05-05T04:28:10.911Z,3.13
2023-05-05T04:30:56.682Z,3.15
2023-05-05T04:33:42.691Z,3.22
2023-05-05T04:36:28.849Z,3.25
2023-05-05T04:39:14.351Z,3.31
2023-05-05T04:41:59.764Z,3.39
2023-05-05T04:44:45.594Z,3.44
2023-05-05T04:47:30.994Z,3.54
2023-05-05T04:50:16.648Z,3.66
2023-05-05T04:53:02.902Z,3.79
2023-05-05T04:55:48.801Z,3.96
2023-05-05T04:58:34.182Z,4.13
2023-05-05T05:01:19.849Z,4.34
2023-05-05T05:04:05.730Z,4.54
2023-05-05T05:06:51.691Z,4.69
2023-05-05T05:09:37.847Z,4.87
2023-05-05T05:12:23.480Z,5.04
2023-05-05T05:15:10.182Z,5.19
2023-05-05T05:17:55.880Z,5.32
2023-05-05T05:20:41.491Z,5.46
2023-05-05T05:23:27.584Z,5.62
2023-05-05T05:26:12.845Z,5.85
2023-05-05T05:28:58.350Z,6.05
2023-05-05T05:31:43.968Z,6.19
2023-05-05T05:34:29.381Z,6.36
2023-05-05T05:37:16.018Z,6.51
2023-05-05T05:40:02.044Z,6.67
2023-05-05T05:42:49.821Z,6.83
2023-05-05T05:45:36.033Z,6.99
2023-05-05T05:48:24.910Z,7.21
2023-05-05T05:51:11.208Z,7.47
2023-05-05T05:53:58.752Z,7.73
2023-05-05T05:56:44.784Z,7.99
2023-05-05T05:59:30.109Z,8.19
2023-05-05T06:02:16.471Z,8.42
2023-05-05T06:05:01.735Z,8.63
2023-05-05T06:07:47.238Z,8.81
2023-05-05T06:10:33.710Z,9.03
2023-05-05T06:13:24.408Z,9.24
2023-05-05T06:16:11.719Z,9.46
2023-05-05T06:18:59.559Z,9.71
2023-05-05T06:21:45.089Z,9.86
2023-05-05T06:24:32.207Z,10.05
2023-05-05T06:27:19.304Z,10.22
2023-05-05T06:30:05.525Z,10.42
2023-05-05T06:32:51.178Z,10.63
2023-05-05T06:35:37.166Z,10.83
2023-05-05T06:38:22.776Z,11.03
2023-05-05T06:41:08.287Z,11.23
2023-05-05T06:43:53.526Z,11.42
2023-05-05T06:46:38.811Z,11.58
2023-05-05T06:49:24.479Z,11.71
2023-05-05T06:52:09.846Z,11.85
2023-05-05T06:54:55.232Z,11.96
2023-05-05T06:57:40.921Z,12.03
2023-05-05T07:00:26.565Z,12.08
2023-05-05T07:03:11.975Z,12.13
2023-05-05T07:05:57.783Z,12.23
2023-05-05T07:08:43.196Z,12.39
2023-05-05T07:11:28.656Z,12.56
2023-05-05T07:14:14.089Z,12.66
2023-05-05T07:16:59.478Z,12.81
2023-05-05T07:19:45.211Z,12.95
2023-05-05T07:22:30.440Z,13.08
2023-05-05T07:25:16.259Z,13.22
2023-05-05T07:28:02.261Z,13.34
2023-05-05T07:30:48.211Z,13.47
2023-05-05T07:33:33.753Z,13.59
2023-05-05T07:36:19.807Z,13.72
2023-05-05T07:39:05.648Z,13.85
2023-05-05T07:41:51.523Z,14.00
2023-05-05T07:44:37.135Z,14.13
2023-05-05T07:47:22.555Z,14.25
2023-05-05T07:50:08.564Z,14.39
2023-05-05T07:53:02.543Z,14.53
2023-05-05T07:55:55.945Z,14.68
2023-05-05T07:58:42.232Z,14.80
2023-05-05T08:01:28.001Z,14.90
2023-05-05T08:04:13.985Z,15.01
2023-05-05T08:06:59.294Z,15.13
2023-05-05T08:09:44.848Z,15.25
2023-05-05T08:12:30.319Z,15.39
2023-05-05T08:15:16.234Z,15.53
2023-05-05T08:18:01.604Z,15.69
2023-05-05T08:20:47.062Z,15.80
2023-05-05T08:23:33.668Z,15.89
2023-05-05T08:26:19.538Z,16.00
2023-05-05T08:29:05.010Z,16.13
2023-05-05T08:31:50.768Z,16.28
2023-05-05T08:34:35.959Z,16.44
2023-05-05T08:37:21.396Z,16.57
2023-05-05T08:40:07.679Z,16.74
2023-05-05T08:42:54.272Z,16.87
2023-05-05T08:45:42.822Z,16.98
2023-05-05T08:48:29.776Z,17.11
2023-05-05T08:51:19.981Z,17.21
2023-05-05T08:54:10.624Z,17.32
2023-05-05T08:57:01.855Z,17.39
2023-05-05T08:59:49.330Z,17.48
2023-05-05T09:02:35.923Z,17.56
2023-05-05T09:05:21.357Z,17.67
2023-05-05T09:08:09.703Z,17.77
2023-05-05T09:10:55.601Z,17.90
2023-05-05T09:13:47.821Z,18.03
2023-05-05T09:16:33.495Z,18.11
2023-05-05T09:19:19.047Z,18.21
2023-05-05T09:22:04.626Z,18.32
2023-05-05T09:24:56.861Z,18.44
2023-05-05T09:27:47.169Z,18.58
2023-05-05T09:30:34.696Z,18.73
2023-05-05T09:33:29.147Z,18.87
2023-05-05T09:36:15.260Z,19.06
2023-05-05T09:39:06.248Z,19.21
2023-05-05T09:41:51.544Z,19.28
2023-05-05T09:44:38.050Z,19.35
2023-05-05T09:47:35.353Z,19.43
2023-05-05T09:50:23.557Z,19.51
2023-05-05T09:53:10.567Z,19.58
2023-05-05T09:56:05.442Z,19.69
2023-05-05T09:58:50.873Z,19.78
2023-05-05T10:01:36.317Z,19.87
2023-05-05T10:04:29.645Z,19.97
2023-05-05T10:07:24.921Z,20.07
2023-05-05T10:10:13.485Z,20.17
2023-05-05T10:12:59.416Z,20.28
2023-05-05T10:15:46.025Z,20.37
2023-05-05T10:18:32.258Z,20.48
2023-05-05T10:21:20.660Z,20.54
2023-05-05T10:24:26.229Z,20.63
2023-05-05T10:27:20.986Z,20.73
2023-05-05T10:30:08.444Z,20.83
2023-05-05T10:33:14.046Z,20.88
2023-05-05T10:36:06.648Z,20.98
2023-05-05T10:38:56.921Z,21.05
2023-05-05T10:41:42.982Z,21.15
2023-05-05T10:44:31.996Z,21.18
2023-05-05T10:47:18.896Z,21.27
2023-05-05T10:50:09.909Z,21.38
2023-05-05T10:53:13.914Z,21.51
2023-05-05T10:56:26.829Z,21.64
2023-05-05T10:59:37.518Z,21.67
2023-05-05T11:02:29.784Z,21.72
2023-05-05T11:05:18.556Z,21.80
2023-05-05T11:08:27.114Z,21.87
2023-05-05T11:11:13.226Z,21.93
2023-05-05T11:14:19.683Z,21.98
2023-05-05T11:17:04.987Z,22.10
2023-05-05T11:19:52.247Z,22.18
2023-05-05T11:23:10.381Z,22.22
2023-05-05T11:25:57.782Z,22.31
2023-05-05T11:28:58.884Z,22.33
2023-05-05T11:31:44.412Z,22.38
2023-05-05T11:34:29.864Z,22.38
2023-05-05T11:37:18.705Z,22.40
2023-05-05T11:40:18.822Z,22.44
2023-05-05T11:43:06.422Z,22.54
2023-05-05T11:46:09.480Z,22.70
2023-05-05T11:48:54.743Z,22.84
2023-05-05T11:51:40.412Z,22.93
2023-05-05T11:54:26.528Z,23.08
2023-05-05T11:57:12.014Z,23.27
2023-05-05T11:59:59.445Z,23.43
2023-05-05T12:02:45.242Z,23.50
2023-05-05T12:05:32.782Z,23.52
2023-05-05T12:08:19.727Z,23.56
2023-05-05T12:11:10.664Z,23.66
2023-05-05T12:14:10.552Z,23.65
2023-05-05T12:17:04.331Z,23.67
2023-05-05T12:19:55.045Z,23.63
2023-05-05T12:22:41.154Z,23.78
2023-05-05T12:25:34.186Z,23.97
2023-05-05T12:28:20.002Z,24.09
2023-05-05T12:31:05.610Z,24.14
2023-05-05T12:33:51.974Z,24.19
2023-05-05T12:36:38.391Z,24.23
2023-05-05T12:39:34.664Z,24.35
2023-05-05T12:42:20.198Z,24.52
2023-05-05T12:45:15.954Z,24.52
2023-05-05T12:48:01.770Z,24.57
2023-05-05T12:50:47.082Z,24.57
2023-05-05T12:53:32.679Z,24.71
2023-05-05T12:56:37.782Z,24.84
2023-05-05T12:59:23.242Z,24.91
2023-05-05T13:02:08.534Z,24.97
2023-05-05T13:04:54.654Z,25.06
2023-05-05T13:07:52.349Z,25.03
2023-05-05T13:10:40.100Z,24.89
2023-05-05T13:13:25.358Z,24.90
2023-05-05T13:16:10.791Z,24.94
2023-05-05T13:18:57.721Z,25.01
2023-05-05T13:21:43.222Z,25.18
2023-05-05T13:24:42.382Z,25.31
2023-05-05T13:27:37.787Z,25.40
2023-05-05T13:30:23.309Z,25.43
2023-05-05T13:33:08.699Z,25.47
2023-05-05T13:35:54.630Z,25.54
2023-05-05T13:38:40.181Z,25.63
2023-05-05T13:41:25.889Z,25.78
2023-05-05T13:44:12.331Z,26.13
2023-05-05T13:46:58.037Z,26.42
2023-05-05T13:49:43.313Z,26.66
2023-05-05T13:52:29.895Z,26.84
2023-05-05T13:55:17.140Z,27.03
2023-05-05T13:58:02.694Z,27.04
2023-05-05T14:00:48.213Z,27.20
2023-05-05T14:03:33.520Z,27.47
2023-05-05T14:06:19.012Z,27.76
2023-05-05T14:09:06.289Z,27.92
2023-05-05T14:11:51.952Z,28.09
2023-05-05T14:14:37.780Z,28.16
2023-05-05T14:17:23.521Z,28.10
2023-05-05T14:20:09.192Z,28.02
2023-05-05T14:22:54.908Z,28.10
2023-05-05T14:25:40.113Z,28.13
2023-05-05T14:28:25.640Z,28.41
2023-05-05T14:31:11.587Z,28.56
2023-05-05T14:33:56.831Z,28.74
2023-05-05T14:36:42.347Z,28.71
2023-05-05T14:39:27.766Z,28.81
2023-05-05T14:42:13.327Z,28.72
2023-05-05T14:44:58.789Z,28.35
2023-05-05T14:47:44.500Z,28.00
2023-05-05T14:50:30.315Z,27.62
2023-05-05T14:53:15.563Z,27.12
2023-05-05T14:56:02.233Z,26.67
2023-05-05T14:58:49.259Z,26.37
2023-05-05T15:01:35.187Z,26.05
2023-05-05T15:04:20.456Z,25.83
2023-05-05T15:07:05.913Z,25.58
2023-05-05T15:09:51.465Z,25.33
2023-05-05T15:12:36.828Z,25.13
2023-05-05T15:15:22.121Z,24.95
2023-05-05T15:18:07.647Z,24.82
2023-05-05T15:20:53.048Z,24.70
2023-05-05T15:23:38.409Z,24.50
2023-05-05T15:26:24.012Z,24.35
2023-05-05T15:29:09.836Z,24.29
2023-05-05T15:31:55.085Z,24.18
2023-05-05T15:34:40.721Z,24.07
2023-05-05T15:37:28.862Z,23.91
2023-05-05T15:40:14.569Z,23.82
2023-05-05T15:43:00.002Z,23.72
2023-05-05T15:45:45.974Z,23.64
2023-05-05T15:48:31.521Z,23.59
2023-05-05T15:51:17.338Z,23.51
2023-05-05T15:54:02.607Z,23.42
2023-05-05T15:56:48.188Z,23.34
2023-05-05T15:59:34.298Z,23.25
2023-05-05T16:02:21.455Z,23.16
2023-05-05T16:05:08.316Z,23.08
2023-05-05T16:07:54.400Z,23.01
2023-05-05T16:10:39.827Z,22.91
2023-05-05T16:13:25.350Z,22.82
2023-05-05T16:16:11.050Z,22.75
2023-05-05T16:18:56.343Z,22.67
2023-05-05T16:21:41.777Z,22.59
2023-05-05T16:24:27.100Z,22.52
2023-05-05T16:27:12.780Z,22.44
2023-05-05T16:29:59.830Z,22.40
2023-05-05T16:32:45.513Z,22.36
2023-05-05T16:35:30.936Z,22.31
2023-05-05T16:38:16.688Z,22.25
2023-05-05T16:41:02.305Z,22.18
2023-05-05T16:43:47.798Z,22.08
2023-05-05T16:46:37.295Z,21.98
2023-05-05T16:49:24.303Z,21.89
2023-05-05T16:52:09.728Z,21.78
2023-05-05T16:54:55.901Z,21.67
2023-05-05T16:57:41.283Z,21.54
2023-05-05T17:00:26.650Z,21.44
2023-05-05T17:03:12.722Z,21.37
2023-05-05T17:05:58.698Z,21.32
2023-05-05T17:08:44.229Z,21.23
2023-05-05T17:11:29.636Z,21.11
2023-05-05T17:14:15.324Z,21.04
2023-05-05T17:17:00.727Z,20.93
2023-05-05T17:19:46.315Z,20.85
2023-05-05T17:22:32.097Z,20.71
2023-05-05T17:25:17.796Z,20.61
2023-05-05T17:28:03.268Z,20.45
2023-05-05T17:30:48.787Z,20.34
2023-05-05T17:33:34.354Z,20.22
2023-05-05T17:36:19.877Z,20.14
2023-05-05T17:39:06.185Z,20.06
2023-05-05T17:41:52.096Z,19.95
2023-05-05T17:44:37.589Z,19.81
2023-05-05T17:47:24.263Z,19.68
2023-05-05T17:50:11.145Z,19.61
2023-05-05T17:52:56.573Z,19.51
2023-05-05T17:55:46.030Z,19.44
2023-05-05T17:58:31.619Z,19.37
2023-05-05T18:01:24.689Z,19.29
2023-05-05T18:04:10.264Z,19.19
2023-05-05T18:06:56.174Z,19.11
2023-05-05T18:09:41.949Z,19.03
2023-05-05T18:12:27.431Z,18.80
2023-05-05T18:15:13.158Z,18.48
2023-05-05T18:17:58.977Z,18.33
2023-05-05T18:20:44.434Z,18.22
2023-05-05T18:23:29.890Z,18.10
2023-05-05T18:26:15.593Z,18.01
2023-05-05T18:29:01.337Z,17.93
2023-05-05T18:31:53.062Z,17.86
2023-05-05T18:34:38.726Z,17.79
2023-05-05T18:37:24.204Z,17.73
2023-05-05T18:40:10.180Z,17.63
2023-05-05T18:42:55.803Z,17.53
2023-05-05T18:45:41.871Z,17.33
2023-05-05T18:48:27.859Z,17.11
2023-05-05T18:51:13.229Z,16.98
2023-05-05T18:53:58.535Z,16.90
2023-05-05T18:56:43.760Z,16.84
2023-05-05T18:59:29.214Z,16.77
2023-05-05T19:02:14.940Z,16.68
2023-05-05T19:05:00.345Z,16.59
2023-05-05T19:07:45.823Z,16.45
2023-05-05T19:10:31.478Z,16.30
2023-05-05T19:13:17.117Z,16.12
2023-05-05T19:16:02.862Z,15.91
2023-05-05T19:18:48.196Z,15.77
2023-05-05T19:21:33.394Z,15.68
2023-05-05T19:24:18.862Z,15.58
2023-05-05T19:27:04.388Z,15.47
2023-05-05T19:29:52.385Z,15.31
2023-05-05T19:32:38.176Z,15.16
2023-05-05T19:35:23.640Z,15.08
2023-05-05T19:38:12.832Z,15.02
2023-05-05T19:40:58.493Z,14.95
2023-05-05T19:43:46.368Z,14.91
2023-05-05T19:46:32.173Z,14.86
2023-05-05T19:49:17.897Z,14.82
2023-05-05T19:52:03.846Z,14.75
2023-05-05T19:54:50.042Z,14.72
2023-05-05T19:57:35.892Z,14.69
2023-05-05T20:00:21.690Z,14.66
2023-05-05T20:03:07.136Z,14.59
2023-05-05T20:05:52.895Z,14.45
2023-05-05T20:08:52.366Z,14.34
2023-05-05T20:11:38.287Z,14.19
2023-05-05T20:14:23.534Z,14.12
2023-05-05T20:17:09.190Z,14.12
2023-05-05T20:19:54.581Z,14.11
2023-05-05T20:22:40.795Z,14.10
2023-05-05T20:25:26.949Z,14.10
2023-05-05T20:28:13.808Z,14.09
2023-05-05T20:31:00.798Z,14.03
2023-05-05T20:33:46.613Z,14.00
2023-05-05T20:36:32.643Z,14.01
2023-05-05T20:39:18.545Z,13.98
2023-05-05T20:42:04.013Z,13.95
2023-05-05T20:44:49.317Z,13.92
2023-05-05T20:47:35.509Z,13.84
2023-05-05T20:50:20.702Z,13.75
2023-05-05T20:53:10.993Z,13.57
2023-05-05T20:55:56.661Z,13.44
2023-05-05T20:58:42.363Z,13.26
2023-05-05T21:01:28.631Z,13.18
2023-05-05T21:04:14.715Z,13.13
2023-05-05T21:07:00.123Z,13.05
2023-05-05T21:09:46.789Z,12.99
2023-05-05T21:12:34.280Z,12.91
2023-05-05T21:15:20.033Z,12.86
2023-05-05T21:18:05.750Z,12.83
2023-05-05T21:20:51.568Z,12.83
2023-05-05T21:23:37.200Z,12.83
2023-05-05T21:26:22.636Z,12.85
2023-05-05T21:29:07.918Z,12.89
2023-05-05T21:31:53.484Z,12.91
2023-05-05T21:34:39.683Z,12.95
2023-05-05T21:37:25.389Z,12.97
2023-05-05T21:40:13.748Z,12.99
2023-05-05T21:42:59.172Z,13.01
2023-05-05T21:45:44.576Z,13.03
2023-05-05T21:48:31.389Z,12.98
2023-05-05T21:51:17.413Z,12.97
2023-05-05T21:54:02.770Z,12.94
2023-05-05T21:56:48.210Z,12.93
2023-05-05T21:59:34.702Z,12.93
2023-05-05T22:02:20.241Z,12.89
2023-05-05T22:05:06.040Z,12.82
2023-05-05T22:07:51.388Z,12.79
2023-05-05T22:10:36.717Z,12.79
2023-05-05T22:13:22.044Z,12.83
2023-05-05T22:16:09.046Z,12.84
2023-05-05T22:18:54.212Z,12.88
2023-05-05T22:21:39.581Z,12.96
2023-05-05T22:24:25.203Z,13.31
2023-05-05T22:27:10.798Z,13.56
2023-05-05T22:29:56.360Z,13.67
2023-05-05T22:32:43.470Z,13.75
2023-05-05T22:35:28.969Z,13.83
2023-05-05T22:38:15.053Z,13.93
2023-05-05T22:41:01.010Z,14.11
2023-05-05T22:43:47.420Z,14.22
2023-05-05T22:46:33.349Z,14.25
2023-05-05T22:49:18.709Z,14.23
2023-05-05T22:52:04.356Z,14.13
2023-05-05T22:54:50.001Z,14.03
2023-05-05T22:57:36.295Z,13.92
2023-05-05T23:00:22.850Z,13.82
2023-05-05T23:03:08.264Z,13.72
2023-05-05T23:05:53.869Z,13.69
2023-05-05T23:08:39.383Z,13.64
2023-05-05T23:11:25.959Z,13.57
2023-05-05T23:14:11.538Z,13.52
2023-05-05T23:16:57.122Z,13.47
2023-05-05T23:19:42.565Z,13.43
2023-05-05T23:22:28.097Z,13.40
2023-05-05T23:25:13.533Z,13.38
2023-05-05T23:27:59.380Z,13.39
2023-05-05T23:30:45.071Z,13.39
2023-05-05T23:33:30.624Z,13.40
2023-05-05T23:36:16.172Z,13.41
2023-05-05T23:39:02.230Z,13.39
2023-05-05T23:41:47.847Z,13.40
2023-05-05T23:44:33.445Z,13.40
2023-05-05T23:47:19.063Z,13.38
2023-05-05T23:50:04.794Z,13.38
2023-05-05T23:52:50.769Z,13.39
2023-05-05T23:55:36.544Z,13.41
2023-05-05T23:58:22.037Z,13.41
